sensor_id;sensor_type;location;lat;lon;timestamp;P1;durP1;ratioP1;P2;durP2;ratioP2
15474;SDS011;7839;50.462;9.678;2023-05-29T00:03:59;0.80;;;0.80;;
15474;SDS011;7839;50.462;9.678;2023-05-29T00:10:40;0.70;;;0.70;;
15474;SDS011;7839;50.462;9.678;2023-05-29T00:17:20;1.13;;;0.93;;
15474;SDS011;7839;50.462;9.678;2023-05-29T00:24:01;0.85;;;0.85;;
15474;SDS011;7839;50.462;9.678;2023-05-29T00:30:41;0.80;;;0.80;;
15474;SDS011;7839;50.462;9.678;2023-05-29T00:37:21;1.15;;;0.90;;
15474;SDS011;7839;50.462;9.678;2023-05-29T00:44:02;0.90;;;0.90;;
15474;SDS011;7839;50.462;9.678;2023-05-29T00:50:43;0.90;;;0.90;;
15474;SDS011;7839;50.462;9.678;2023-05-29T00:57:23;0.73;;;0.73;;
15474;SDS011;7839;50.462;9.678;2023-05-29T01:04:05;0.57;;;0.57;;
15474;SDS011;7839;50.462;9.678;2023-05-29T01:10:46;1.35;;;0.80;;
15474;SDS011;7839;50.462;9.678;2023-05-29T01:24:31;0.80;;;0.80;;
15474;SDS011;7839;50.462;9.678;2023-05-29T01:31:12;0.93;;;0.70;;
15474;SDS011;7839;50.462;9.678;2023-05-29T01:37:54;4.03;;;2.95;;
15474;SDS011;7839;50.462;9.678;2023-05-29T01:44:34;0.80;;;0.80;;
15474;SDS011;7839;50.462;9.678;2023-05-29T01:51:14;0.80;;;0.80;;
15474;SDS011;7839;50.462;9.678;2023-05-29T01:57:55;1.15;;;0.90;;
15474;SDS011;7839;50.462;9.678;2023-05-29T02:04:35;0.68;;;0.68;;
15474;SDS011;7839;50.462;9.678;2023-05-29T02:11:15;0.85;;;0.85;;
15474;SDS011;7839;50.462;9.678;2023-05-29T02:17:56;0.70;;;0.70;;
15474;SDS011;7839;50.462;9.678;2023-05-29T02:24:37;0.80;;;0.80;;
15474;SDS011;7839;50.462;9.678;2023-05-29T02:31:17;0.68;;;0.68;;
15474;SDS011;7839;50.462;9.678;2023-05-29T02:37:58;0.95;;;0.77;;
15474;SDS011;7839;50.462;9.678;2023-05-29T02:44:38;3.88;;;2.95;;
15474;SDS011;7839;50.462;9.678;2023-05-29T02:51:18;0.80;;;0.80;;
15474;SDS011;7839;50.462;9.678;2023-05-29T02:57:58;4.47;;;3.00;;
15474;SDS011;7839;50.462;9.678;2023-05-29T03:04:39;1.00;;;1.00;;
15474;SDS011;7839;50.462;9.678;2023-05-29T03:11:20;1.05;;;0.95;;
15474;SDS011;7839;50.462;9.678;2023-05-29T03:18:03;0.80;;;0.80;;
15474;SDS011;7839;50.462;9.678;2023-05-29T03:24:43;0.80;;;0.80;;
15474;SDS011;7839;50.462;9.678;2023-05-29T03:31:23;0.80;;;0.80;;
15474;SDS011;7839;50.462;9.678;2023-05-29T03:38:04;0.80;;;0.80;;
15474;SDS011;7839;50.462;9.678;2023-05-29T03:44:44;0.70;;;0.70;;
15474;SDS011;7839;50.462;9.678;2023-05-29T03:51:24;0.73;;;0.60;;
15474;SDS011;7839;50.462;9.678;2023-05-29T03:58:05;0.60;;;0.60;;
15474;SDS011;7839;50.462;9.678;2023-05-29T04:04:45;2.88;;;2.45;;
15474;SDS011;7839;50.462;9.678;2023-05-29T04:11:25;0.80;;;0.80;;
15474;SDS011;7839;50.462;9.678;2023-05-29T04:18:05;3.30;;;1.90;;
15474;SDS011;7839;50.462;9.678;2023-05-29T04:24:46;6.28;;;3.45;;
15474;SDS011;7839;50.462;9.678;2023-05-29T04:31:26;1.20;;;1.10;;
15474;SDS011;7839;50.462;9.678;2023-05-29T04:38:06;3.00;;;1.80;;
15474;SDS011;7839;50.462;9.678;2023-05-29T04:44:47;3.43;;;2.50;;
15474;SDS011;7839;50.462;9.678;2023-05-29T04:51:27;0.97;;;0.97;;
15474;SDS011;7839;50.462;9.678;2023-05-29T04:58:08;1.30;;;1.23;;
15474;SDS011;7839;50.462;9.678;2023-05-29T05:04:48;1.20;;;1.10;;
15474;SDS011;7839;50.462;9.678;2023-05-29T05:11:30;1.00;;;1.00;;
15474;SDS011;7839;50.462;9.678;2023-05-29T05:18:10;1.02;;;1.02;;
15474;SDS011;7839;50.462;9.678;2023-05-29T05:24:50;4.60;;;3.03;;
15474;SDS011;7839;50.462;9.678;2023-05-29T05:31:32;2.63;;;1.90;;
15474;SDS011;7839;50.462;9.678;2023-05-29T05:38:13;5.13;;;3.17;;
15474;SDS011;7839;50.462;9.678;2023-05-29T05:44:53;5.37;;;3.53;;
15474;SDS011;7839;50.462;9.678;2023-05-29T05:51:33;6.00;;;3.53;;
15474;SDS011;7839;50.462;9.678;2023-05-29T05:58:13;5.73;;;3.83;;
15474;SDS011;7839;50.462;9.678;2023-05-29T06:04:53;5.07;;;3.67;;
15474;SDS011;7839;50.462;9.678;2023-05-29T06:11:34;4.60;;;3.47;;
15474;SDS011;7839;50.462;9.678;2023-05-29T06:18:14;5.70;;;3.43;;
15474;SDS011;7839;50.462;9.678;2023-05-29T06:24:54;3.27;;;2.63;;
15474;SDS011;7839;50.462;9.678;2023-05-29T06:31:34;5.53;;;2.77;;
15474;SDS011;7839;50.462;9.678;2023-05-29T06:38:16;5.63;;;3.83;;
15474;SDS011;7839;50.462;9.678;2023-05-29T06:44:56;6.00;;;3.60;;
15474;SDS011;7839;50.462;9.678;2023-05-29T06:51:36;6.30;;;3.77;;
15474;SDS011;7839;50.462;9.678;2023-05-29T06:58:17;6.00;;;4.13;;
15474;SDS011;7839;50.462;9.678;2023-05-29T07:04:57;4.73;;;3.47;;
15474;SDS011;7839;50.462;9.678;2023-05-29T07:11:37;4.97;;;3.73;;
15474;SDS011;7839;50.462;9.678;2023-05-29T07:18:18;7.20;;;4.00;;
15474;SDS011;7839;50.462;9.678;2023-05-29T07:24:58;6.13;;;3.70;;
15474;SDS011;7839;50.462;9.678;2023-05-29T07:31:38;6.80;;;3.50;;
15474;SDS011;7839;50.462;9.678;2023-05-29T07:38:20;5.77;;;3.87;;
15474;SDS011;7839;50.462;9.678;2023-05-29T07:45:01;9.10;;;3.90;;
15474;SDS011;7839;50.462;9.678;2023-05-29T07:51:41;7.90;;;3.70;;
15474;SDS011;7839;50.462;9.678;2023-05-29T07:58:21;5.60;;;3.27;;
15474;SDS011;7839;50.462;9.678;2023-05-29T08:05:02;8.43;;;3.77;;
15474;SDS011;7839;50.462;9.678;2023-05-29T08:11:43;5.33;;;3.50;;
15474;SDS011;7839;50.462;9.678;2023-05-29T08:18:25;5.70;;;3.60;;
15474;SDS011;7839;50.462;9.678;2023-05-29T08:25:05;9.97;;;3.20;;
15474;SDS011;7839;50.462;9.678;2023-05-29T08:31:46;7.93;;;3.90;;
15474;SDS011;7839;50.462;9.678;2023-05-29T08:38:26;6.17;;;3.33;;
15474;SDS011;7839;50.462;9.678;2023-05-29T08:45:06;6.67;;;3.60;;
15474;SDS011;7839;50.462;9.678;2023-05-29T08:51:47;7.30;;;3.57;;
15474;SDS011;7839;50.462;9.678;2023-05-29T08:58:30;8.60;;;3.80;;
15474;SDS011;7839;50.462;9.678;2023-05-29T09:05:11;6.67;;;3.40;;
15474;SDS011;7839;50.462;9.678;2023-05-29T09:11:52;3.97;;;3.03;;
15474;SDS011;7839;50.462;9.678;2023-05-29T09:18:33;4.97;;;3.53;;
15474;SDS011;7839;50.462;9.678;2023-05-29T09:25:13;5.93;;;2.80;;
15474;SDS011;7839;50.462;9.678;2023-05-29T09:31:53;4.07;;;3.13;;
15474;SDS011;7839;50.462;9.678;2023-05-29T09:38:33;5.87;;;3.37;;
15474;SDS011;7839;50.462;9.678;2023-05-29T09:45:16;9.20;;;3.60;;
15474;SDS011;7839;50.462;9.678;2023-05-29T09:51:57;5.40;;;3.10;;
15474;SDS011;7839;50.462;9.678;2023-05-29T09:58:39;4.53;;;3.33;;
15474;SDS011;7839;50.462;9.678;2023-05-29T10:05:25;7.10;;;3.00;;
15474;SDS011;7839;50.462;9.678;2023-05-29T10:12:06;5.50;;;3.40;;
15474;SDS011;7839;50.462;9.678;2023-05-29T10:18:49;4.47;;;2.67;;
15474;SDS011;7839;50.462;9.678;2023-05-29T10:25:31;5.60;;;2.93;;
15474;SDS011;7839;50.462;9.678;2023-05-29T10:32:20;3.10;;;2.80;;
15474;SDS011;7839;50.462;9.678;2023-05-29T10:39:01;6.90;;;2.83;;
15474;SDS011;7839;50.462;9.678;2023-05-29T10:52:22;3.83;;;2.80;;
15474;SDS011;7839;50.462;9.678;2023-05-29T10:59:02;4.93;;;2.80;;
15474;SDS011;7839;50.462;9.678;2023-05-29T11:12:56;3.80;;;2.90;;
15474;SDS011;7839;50.462;9.678;2023-05-29T11:19:37;6.13;;;3.10;;
15474;SDS011;7839;50.462;9.678;2023-05-29T11:26:18;3.22;;;2.90;;
15474;SDS011;7839;50.462;9.678;2023-05-29T11:33:00;4.27;;;2.73;;
15474;SDS011;7839;50.462;9.678;2023-05-29T11:39:41;5.05;;;2.70;;
15474;SDS011;7839;50.462;9.678;2023-05-29T11:46:22;4.10;;;2.87;;
15474;SDS011;7839;50.462;9.678;2023-05-29T11:53:02;3.58;;;2.92;;
15474;SDS011;7839;50.462;9.678;2023-05-29T11:59:42;5.50;;;3.08;;
15474;SDS011;7839;50.462;9.678;2023-05-29T12:06:35;5.18;;;2.88;;
15474;SDS011;7839;50.462;9.678;2023-05-29T12:13:18;3.57;;;2.53;;
15474;SDS011;7839;50.462;9.678;2023-05-29T12:19:58;3.00;;;2.72;;
15474;SDS011;7839;50.462;9.678;2023-05-29T12:26:39;2.80;;;2.50;;
15474;SDS011;7839;50.462;9.678;2023-05-29T12:33:25;3.80;;;2.72;;
15474;SDS011;7839;50.462;9.678;2023-05-29T12:40:14;4.47;;;3.22;;
15474;SDS011;7839;50.462;9.678;2023-05-29T12:46:56;4.03;;;2.67;;
15474;SDS011;7839;50.462;9.678;2023-05-29T12:53:36;4.57;;;2.95;;
15474;SDS011;7839;50.462;9.678;2023-05-29T13:00:17;5.70;;;3.10;;
15474;SDS011;7839;50.462;9.678;2023-05-29T13:06:57;6.20;;;3.13;;
15474;SDS011;7839;50.462;9.678;2023-05-29T13:13:37;4.88;;;2.70;;
15474;SDS011;7839;50.462;9.678;2023-05-29T13:20:18;6.07;;;2.75;;
15474;SDS011;7839;50.462;9.678;2023-05-29T13:26:58;4.32;;;2.85;;
15474;SDS011;7839;50.462;9.678;2023-05-29T13:33:40;3.83;;;2.65;;
15474;SDS011;7839;50.462;9.678;2023-05-29T13:40:20;5.47;;;2.88;;
15474;SDS011;7839;50.462;9.678;2023-05-29T13:47:01;3.00;;;2.70;;
15474;SDS011;7839;50.462;9.678;2023-05-29T13:53:41;4.13;;;2.80;;
15474;SDS011;7839;50.462;9.678;2023-05-29T14:00:21;3.20;;;2.90;;
15474;SDS011;7839;50.462;9.678;2023-05-29T14:07:01;5.97;;;3.00;;
15474;SDS011;7839;50.462;9.678;2023-05-29T14:13:41;6.25;;;3.28;;
15474;SDS011;7839;50.462;9.678;2023-05-29T14:20:22;4.18;;;2.78;;
15474;SDS011;7839;50.462;9.678;2023-05-29T14:27:02;3.00;;;2.70;;
15474;SDS011;7839;50.462;9.678;2023-05-29T14:33:42;4.65;;;2.60;;
15474;SDS011;7839;50.462;9.678;2023-05-29T14:40:23;5.63;;;2.60;;
15474;SDS011;7839;50.462;9.678;2023-05-29T14:47:03;4.85;;;2.70;;
15474;SDS011;7839;50.462;9.678;2023-05-29T14:53:43;3.35;;;2.60;;
15474;SDS011;7839;50.462;9.678;2023-05-29T15:00:24;4.50;;;3.08;;
15474;SDS011;7839;50.462;9.678;2023-05-29T15:07:05;4.22;;;2.50;;
15474;SDS011;7839;50.462;9.678;2023-05-29T15:13:45;3.40;;;2.60;;
15474;SDS011;7839;50.462;9.678;2023-05-29T15:20:25;5.28;;;2.90;;
15474;SDS011;7839;50.462;9.678;2023-05-29T15:27:06;3.07;;;2.77;;
15474;SDS011;7839;50.462;9.678;2023-05-29T15:33:46;4.47;;;2.58;;
15474;SDS011;7839;50.462;9.678;2023-05-29T15:40:27;3.80;;;2.97;;
15474;SDS011;7839;50.462;9.678;2023-05-29T15:47:07;4.38;;;2.83;;
15474;SDS011;7839;50.462;9.678;2023-05-29T15:53:47;3.35;;;2.33;;
15474;SDS011;7839;50.462;9.678;2023-05-29T16:00:27;4.15;;;2.60;;
15474;SDS011;7839;50.462;9.678;2023-05-29T16:07:07;3.67;;;2.75;;
15474;SDS011;7839;50.462;9.678;2023-05-29T16:13:48;4.47;;;3.00;;
15474;SDS011;7839;50.462;9.678;2023-05-29T16:20:28;3.72;;;2.65;;
15474;SDS011;7839;50.462;9.678;2023-05-29T16:27:08;5.47;;;3.17;;
15474;SDS011;7839;50.462;9.678;2023-05-29T16:33:48;2.73;;;2.40;;
15474;SDS011;7839;50.462;9.678;2023-05-29T16:40:29;4.80;;;2.78;;
15474;SDS011;7839;50.462;9.678;2023-05-29T16:47:09;5.72;;;3.28;;
15474;SDS011;7839;50.462;9.678;2023-05-29T16:53:49;3.97;;;3.00;;
15474;SDS011;7839;50.462;9.678;2023-05-29T17:00:30;5.60;;;2.73;;
15474;SDS011;7839;50.462;9.678;2023-05-29T17:07:10;3.63;;;3.00;;
15474;SDS011;7839;50.462;9.678;2023-05-29T17:13:50;6.47;;;3.07;;
15474;SDS011;7839;50.462;9.678;2023-05-29T17:20:30;4.20;;;2.67;;
15474;SDS011;7839;50.462;9.678;2023-05-29T17:27:10;3.77;;;3.20;;
15474;SDS011;7839;50.462;9.678;2023-05-29T17:33:51;5.07;;;3.07;;
15474;SDS011;7839;50.462;9.678;2023-05-29T17:40:31;6.07;;;2.80;;
15474;SDS011;7839;50.462;9.678;2023-05-29T17:47:11;4.93;;;3.37;;
15474;SDS011;7839;50.462;9.678;2023-05-29T17:53:51;5.60;;;3.07;;
15474;SDS011;7839;50.462;9.678;2023-05-29T18:00:31;6.87;;;3.60;;
15474;SDS011;7839;50.462;9.678;2023-05-29T18:07:12;5.70;;;2.50;;
15474;SDS011;7839;50.462;9.678;2023-05-29T18:13:55;4.77;;;2.60;;
15474;SDS011;7839;50.462;9.678;2023-05-29T18:20:36;3.50;;;2.70;;
15474;SDS011;7839;50.462;9.678;2023-05-29T18:27:16;5.23;;;2.97;;
15474;SDS011;7839;50.462;9.678;2023-05-29T18:33:56;5.83;;;2.90;;
15474;SDS011;7839;50.462;9.678;2023-05-29T18:40:36;3.67;;;2.67;;
15474;SDS011;7839;50.462;9.678;2023-05-29T18:47:16;4.53;;;3.10;;
15474;SDS011;7839;50.462;9.678;2023-05-29T18:53:57;7.73;;;3.30;;
15474;SDS011;7839;50.462;9.678;2023-05-29T19:00:38;4.53;;;3.03;;
15474;SDS011;7839;50.462;9.678;2023-05-29T19:07:19;4.60;;;3.03;;
15474;SDS011;7839;50.462;9.678;2023-05-29T19:13:59;5.97;;;3.13;;
15474;SDS011;7839;50.462;9.678;2023-05-29T19:20:40;7.57;;;3.10;;
15474;SDS011;7839;50.462;9.678;2023-05-29T19:27:21;7.80;;;3.07;;
15474;SDS011;7839;50.462;9.678;2023-05-29T19:34:01;4.87;;;3.03;;
15474;SDS011;7839;50.462;9.678;2023-05-29T19:40:42;5.37;;;2.53;;
15474;SDS011;7839;50.462;9.678;2023-05-29T19:47:23;5.73;;;2.77;;
15474;SDS011;7839;50.462;9.678;2023-05-29T19:54:03;5.80;;;3.33;;
15474;SDS011;7839;50.462;9.678;2023-05-29T20:00:44;3.63;;;2.63;;
15474;SDS011;7839;50.462;9.678;2023-05-29T20:07:25;5.00;;;2.93;;
15474;SDS011;7839;50.462;9.678;2023-05-29T20:14:05;6.10;;;3.07;;
15474;SDS011;7839;50.462;9.678;2023-05-29T20:20:46;5.80;;;3.00;;
15474;SDS011;7839;50.462;9.678;2023-05-29T20:27:26;6.47;;;2.97;;
15474;SDS011;7839;50.462;9.678;2023-05-29T20:34:07;6.70;;;3.30;;
15474;SDS011;7839;50.462;9.678;2023-05-29T20:40:47;8.83;;;3.43;;
15474;SDS011;7839;50.462;9.678;2023-05-29T20:47:28;6.33;;;2.53;;
15474;SDS011;7839;50.462;9.678;2023-05-29T20:54:08;4.47;;;2.70;;
15474;SDS011;7839;50.462;9.678;2023-05-29T21:00:48;7.60;;;2.87;;
15474;SDS011;7839;50.462;9.678;2023-05-29T21:07:29;7.30;;;2.87;;
15474;SDS011;7839;50.462;9.678;2023-05-29T21:14:15;5.20;;;2.87;;
15474;SDS011;7839;50.462;9.678;2023-05-29T21:20:55;6.17;;;3.40;;
15474;SDS011;7839;50.462;9.678;2023-05-29T21:27:35;4.83;;;2.77;;
15474;SDS011;7839;50.462;9.678;2023-05-29T21:34:16;3.80;;;2.27;;
15474;SDS011;7839;50.462;9.678;2023-05-29T21:40:56;6.93;;;3.13;;
15474;SDS011;7839;50.462;9.678;2023-05-29T21:47:37;6.10;;;2.50;;
15474;SDS011;7839;50.462;9.678;2023-05-29T21:54:20;6.83;;;2.77;;
15474;SDS011;7839;50.462;9.678;2023-05-29T22:01:00;7.77;;;2.93;;
15474;SDS011;7839;50.462;9.678;2023-05-29T22:07:41;5.73;;;2.63;;
15474;SDS011;7839;50.462;9.678;2023-05-29T22:14:21;8.00;;;2.97;;
15474;SDS011;7839;50.462;9.678;2023-05-29T22:21:01;5.47;;;2.97;;
15474;SDS011;7839;50.462;9.678;2023-05-29T22:27:44;7.53;;;2.60;;
15474;SDS011;7839;50.462;9.678;2023-05-29T22:34:24;7.23;;;3.10;;
15474;SDS011;7839;50.462;9.678;2023-05-29T22:41:04;3.83;;;2.50;;
15474;SDS011;7839;50.462;9.678;2023-05-29T22:47:44;7.05;;;2.75;;
15474;SDS011;7839;50.462;9.678;2023-05-29T22:54:25;6.83;;;2.90;;
15474;SDS011;7839;50.462;9.678;2023-05-29T23:01:06;4.53;;;2.40;;
15474;SDS011;7839;50.462;9.678;2023-05-29T23:07:47;4.30;;;2.30;;
15474;SDS011;7839;50.462;9.678;2023-05-29T23:14:27;4.00;;;2.37;;
15474;SDS011;7839;50.462;9.678;2023-05-29T23:21:07;6.93;;;2.30;;
15474;SDS011;7839;50.462;9.678;2023-05-29T23:27:47;5.03;;;2.63;;
15474;SDS011;7839;50.462;9.678;2023-05-29T23:34:28;5.30;;;2.40;;
15474;SDS011;7839;50.462;9.678;2023-05-29T23:41:08;4.67;;;2.60;;
15474;SDS011;7839;50.462;9.678;2023-05-29T23:47:48;4.70;;;2.40;;
15474;SDS011;7839;50.462;9.678;2023-05-29T23:54:29;4.57;;;2.33;;
